Wednesday, March 04, 2015
22:42 UTC
  |  Log In   |  Register Free
Airport Search:

Durant Regional - Eaker Field Airport
(KDUA)

Durant Regional - Eaker Field Airport Diagram
No Airport Diagram Available

FAA data valid effective January 08, 2015 - March 05, 2015 (unless otherwise noted).

 
 
 
 
 
 
 
 
 
 
 
 
 
 

Current Aviation Weather for Durant Regional - Eaker Field Airport (KDUA)

The most recent METAR observation for KDUA was updated at: 2208
METAR Summary (Translated METAR)
KDUA
042115Z AUTO 36015G21KT 240V020 4SM -SN OVC011 M01/M01 A3009 RMK AO2
KGYI
042115Z AUTO 01013G21KT 10SM OVC012 00/00 A3008 RMK AO2 T00001001
(19.5 nm SW from KDUA)
KAQR
042110Z AUTO 01013G25KT 10SM OVC014 M01/M02 A3011 RMK AO2
(30 nm NE from KDUA)
TAF
No TAF information found within 50 nm of KDUA
  Airport Weather Conditions for KDUA

 Current Weather at DUA
30° F
Light Snow
North winds at 17.3 mph
DUA NOAA Radar

Pressure: 30.09 in
Humidity: 100%
Wind: from the North at 17.3 gusting to 24.2 MPH (15 gusting to 21 KT)
Dew Point: 30.2°F
Visibility: 4.00 mi


Airport Weather Forecast for KDUA

Translated METAR and TAF for KDUA
Translated METAR for KDUA (2242 UTC 04 March 2015)
found at http://aviationweather.gov/adds/metars/
 
METAR text: KDUA 042235Z AUTO 36015G23KT 310V030 10SM OVC013 M01/M02 A3009 RMK AO2
Conditions at: KDUA (DURANT , OK, US) observed 2235 UTC 04 March 2015
Temperature: -1.0°C (30°F)
Dewpoint: -2.0°C (28°F) [RH = 93%]
Pressure (altimeter): 30.09 inches Hg (1019.0 mb)
Winds: from the N (360 degrees) at 17 MPH (15 knots; 7.8 m/s)
gusting to 26 MPH (23 knots; 12.0 m/s)
Visibility: 10 or more miles (16+ km)
Ceiling: 1300 feet AGL
Clouds: overcast cloud deck at 1300 feet AGL
Weather: automated observation with no human augmentation;
there may or may not be significant weather present at this time
Translated TAF for KDUA

There is no translated TAF available for this airport

Find All Airport Services Find A Hotel Find A Rental Car Find A Golf Course Find A Restaurant $100 Hamburger



FBO's on the Field
FBO Company Facility Photos Services Transportation Aviation Fuel Prices: Prices include tax
Catering Weather Repair Courtesy Rental Type 100LL JetA JetA+ MOGAS 8087
 
D/W Aviation

This FBO has not yet been rated
FS:Avfuel
Last Updated: Feb-17
Login to update fuel prices
SS:
Contact D/W AviationMore FBO Information
 
Add another FBO Facility Photos Catering Weather Repair Courtesy Rental Type 100LL JetA JetA+ MOGAS 8087
Services Transportation Aviation Fuel Prices: Prices include tax


model-print
model-print
model-print
model-print